createdAt,value
2022-09-18T00:01:45.946Z,98554.28
2022-09-18T00:04:16.139Z,98563.56
2022-09-18T00:06:45.843Z,98558.44
2022-09-18T00:09:15.969Z,98556.16
2022-09-18T00:11:46.373Z,98559.69
2022-09-18T00:14:16.720Z,98551.91
2022-09-18T00:16:47.132Z,98560.75
2022-09-18T00:19:20.723Z,98556.78
2022-09-18T00:21:51.432Z,98547.94
2022-09-18T00:24:20.087Z,98557.78
2022-09-18T00:26:48.844Z,98552.25
2022-09-18T00:29:18.243Z,98552.53
2022-09-18T00:31:46.879Z,98552.63
2022-09-18T00:34:16.104Z,98549.03
2022-09-18T00:36:44.455Z,98553.19
2022-09-18T00:39:12.187Z,98553.53
2022-09-18T00:41:42.746Z,98545.78
2022-09-18T00:44:35.686Z,98561.56
2022-09-18T00:47:08.439Z,98545.31
2022-09-18T00:49:44.789Z,98560.28
2022-09-18T00:52:14.700Z,98554.88
2022-09-18T00:54:51.057Z,98560.34
2022-09-18T00:57:24.254Z,98550.81
2022-09-18T00:59:53.395Z,98554.16
2022-09-18T01:02:22.315Z,98551.53
2022-09-18T01:04:59.641Z,98540.13
2022-09-18T01:07:49.415Z,98537.56
2022-09-18T01:10:28.548Z,98538.34
2022-09-18T01:13:12.928Z,98537.06
2022-09-18T01:16:05.204Z,98542.31
2022-09-18T01:18:49.358Z,98530.56
2022-09-18T01:21:34.100Z,98533.25
2022-09-18T01:24:19.006Z,98537.34
2022-09-18T01:27:02.297Z,98534.16
2022-09-18T01:29:55.750Z,98542.56
2022-09-18T01:32:29.362Z,98537.22
2022-09-18T01:35:40.491Z,98546.41
2022-09-18T01:38:48.747Z,98545.06
2022-09-18T01:41:25.028Z,98546.59
2022-09-18T01:44:14.918Z,98545.00
2022-09-18T01:46:50.803Z,98544.50
2022-09-18T01:49:25.822Z,98538.97
2022-09-18T01:52:02.974Z,98538.34
2022-09-18T01:54:48.532Z,98532.00
2022-09-18T01:57:29.378Z,98550.13
2022-09-18T02:00:30.718Z,98547.22
2022-09-18T02:03:23.248Z,98543.56
2022-09-18T02:05:57.168Z,98543.00
2022-09-18T02:08:32.591Z,98543.28
2022-09-18T02:11:09.889Z,98549.56
2022-09-18T02:13:48.525Z,98541.72
2022-09-18T02:16:37.363Z,98537.84
2022-09-18T02:19:15.464Z,98536.19
2022-09-18T02:21:48.399Z,98542.66
2022-09-18T02:24:34.359Z,98531.91
2022-09-18T02:27:03.850Z,98538.25
2022-09-18T02:29:32.847Z,98543.00
2022-09-18T02:32:06.174Z,98546.44
2022-09-18T02:34:37.365Z,98535.34
2022-09-18T02:37:13.675Z,98532.84
2022-09-18T02:40:18.015Z,98537.97
2022-09-18T02:43:18.921Z,98533.97
2022-09-18T02:46:13.541Z,98539.19
2022-09-18T02:49:01.617Z,98535.41
2022-09-18T02:51:40.566Z,98535.47
2022-09-18T02:54:48.655Z,98543.88
2022-09-18T02:57:31.851Z,98536.06
2022-09-18T03:00:01.786Z,98529.31
2022-09-18T03:02:29.321Z,98538.72
2022-09-18T03:04:59.420Z,98542.22
2022-09-18T03:07:28.518Z,98540.44
2022-09-18T03:09:55.551Z,98531.06
2022-09-18T03:12:22.701Z,98534.53
2022-09-18T03:14:50.835Z,98528.47
2022-09-18T03:17:23.995Z,98531.44
2022-09-18T03:19:51.104Z,98535.94
2022-09-18T03:22:18.211Z,98525.25
2022-09-18T03:24:45.245Z,98527.47
2022-09-18T03:27:14.327Z,98519.84
2022-09-18T03:29:46.453Z,98523.19
2022-09-18T03:32:13.636Z,98524.34
2022-09-18T03:34:48.026Z,98531.69
2022-09-18T03:37:21.369Z,98527.31
2022-09-18T03:39:48.628Z,98527.41
2022-09-18T03:42:21.720Z,98522.16
2022-09-18T03:44:57.811Z,98530.66
2022-09-18T03:47:26.446Z,98534.06
2022-09-18T03:49:53.659Z,98530.25
2022-09-18T03:52:23.739Z,98540.50
2022-09-18T03:54:50.764Z,98534.59
2022-09-18T03:57:18.804Z,98536.44
2022-09-18T03:59:45.876Z,98531.38
2022-09-18T04:02:13.013Z,98529.41
2022-09-18T04:04:39.994Z,98531.38
2022-09-18T04:07:14.120Z,98529.50
2022-09-18T04:09:42.164Z,98516.22
2022-09-18T04:12:16.314Z,98513.84
2022-09-18T04:14:43.344Z,98518.72
2022-09-18T04:17:11.420Z,98519.34
2022-09-18T04:19:39.448Z,98519.56
2022-09-18T04:22:07.628Z,98517.41
2022-09-18T04:24:36.527Z,98524.69
2022-09-18T04:27:10.056Z,98523.28
2022-09-18T04:29:44.209Z,98522.16
2022-09-18T04:32:18.412Z,98512.47
2022-09-18T04:34:46.473Z,98519.44
2022-09-18T04:37:13.565Z,98509.06
2022-09-18T04:39:40.686Z,98511.84
2022-09-18T04:42:07.781Z,98518.81
2022-09-18T04:44:35.877Z,98522.22
2022-09-18T04:47:08.194Z,98528.44
2022-09-18T04:49:35.313Z,98528.56
2022-09-18T04:52:02.862Z,98524.88
2022-09-18T04:54:31.264Z,98536.16
2022-09-18T04:56:58.431Z,98535.88
2022-09-18T04:59:25.618Z,98535.53
2022-09-18T05:01:54.709Z,98535.28
2022-09-18T05:04:22.817Z,98528.28
2022-09-18T05:06:50.885Z,98529.28
2022-09-18T05:09:17.924Z,98536.13
2022-09-18T05:11:45.143Z,98528.28
2022-09-18T05:14:12.221Z,98535.88
2022-09-18T05:16:39.333Z,98541.31
2022-09-18T05:19:30.790Z,98536.44
2022-09-18T05:21:57.857Z,98537.59
2022-09-18T05:24:24.976Z,98541.13
2022-09-18T05:26:52.229Z,98536.66
2022-09-18T05:29:20.422Z,98540.97
2022-09-18T05:31:49.746Z,98538.09
2022-09-18T05:34:21.860Z,98535.56
2022-09-18T05:37:12.335Z,98537.19
2022-09-18T05:39:39.633Z,98540.50
2022-09-18T05:42:06.917Z,98546.09
2022-09-18T05:44:33.888Z,98544.75
2022-09-18T05:47:02.317Z,98556.00
2022-09-18T05:49:29.392Z,98549.44
2022-09-18T05:51:57.482Z,98543.63
2022-09-18T05:54:26.539Z,98543.59
2022-09-18T05:56:54.620Z,98539.88
2022-09-18T05:59:22.213Z,98535.84
2022-09-18T06:01:55.158Z,98544.13
2022-09-18T06:04:26.339Z,98536.41
2022-09-18T06:06:54.414Z,98538.53
2022-09-18T06:09:21.972Z,98549.78
2022-09-18T06:11:50.108Z,98534.28
2022-09-18T06:14:20.178Z,98538.22
2022-09-18T06:16:48.917Z,98533.88
2022-09-18T06:19:17.096Z,98537.53
2022-09-18T06:21:44.217Z,98538.06
2022-09-18T06:24:13.349Z,98544.72
2022-09-18T06:26:40.388Z,98540.78
2022-09-18T06:29:09.434Z,98550.25
2022-09-18T06:31:37.696Z,98541.44
2022-09-18T06:34:04.654Z,98534.47
2022-09-18T06:36:31.689Z,98538.06
2022-09-18T06:38:58.725Z,98538.06
2022-09-18T06:41:25.864Z,98536.44
2022-09-18T06:43:52.920Z,98544.56
2022-09-18T06:46:20.032Z,98546.41
2022-09-18T06:48:51.152Z,98534.31
2022-09-18T06:51:18.258Z,98529.06
2022-09-18T06:53:53.113Z,98537.81
2022-09-18T06:56:20.080Z,98533.47
2022-09-18T06:58:47.071Z,98537.31
2022-09-18T07:01:18.329Z,98540.44
2022-09-18T07:03:50.118Z,98544.56
2022-09-18T07:06:18.554Z,98543.94
2022-09-18T07:08:45.754Z,98543.88
2022-09-18T07:11:20.838Z,98524.97
2022-09-18T07:13:56.562Z,98544.38
2022-09-18T07:16:25.906Z,98540.81
2022-09-18T07:18:57.792Z,98553.66
2022-09-18T07:21:29.102Z,98534.84
2022-09-18T07:24:00.484Z,98546.06
2022-09-18T07:26:33.568Z,98546.41
2022-09-18T07:29:00.659Z,98544.94
2022-09-18T07:31:28.817Z,98548.56
2022-09-18T07:33:56.938Z,98549.78
2022-09-18T07:36:27.061Z,98555.22
2022-09-18T07:38:54.059Z,98554.94
2022-09-18T07:41:24.292Z,98557.75
2022-09-18T07:43:51.791Z,98542.09
2022-09-18T07:46:20.103Z,98555.44
2022-09-18T07:48:47.090Z,98553.63
2022-09-18T07:51:14.474Z,98564.03
2022-09-18T07:53:42.504Z,98577.75
2022-09-18T07:56:20.908Z,98570.22
2022-09-18T07:58:52.953Z,98568.88
2022-09-18T08:01:21.105Z,98570.34
2022-09-18T08:03:48.264Z,98582.69
2022-09-18T08:06:15.466Z,98569.44
2022-09-18T08:08:45.939Z,98571.13
2022-09-18T08:11:13.928Z,98573.31
2022-09-18T08:13:42.200Z,98568.53
2022-09-18T08:16:10.262Z,98577.41
2022-09-18T08:18:39.778Z,98572.66
2022-09-18T08:21:10.788Z,98569.91
2022-09-18T08:23:39.024Z,98576.06
2022-09-18T08:26:07.180Z,98568.81
2022-09-18T08:28:43.915Z,98571.13
2022-09-18T08:31:11.150Z,98559.72
2022-09-18T08:33:38.269Z,98574.72
2022-09-18T08:36:08.104Z,98567.63
2022-09-18T08:38:36.246Z,98570.94
2022-09-18T08:41:59.239Z,98577.78
2022-09-18T08:44:30.054Z,98577.94
2022-09-18T08:47:11.948Z,98571.66
2022-09-18T08:49:49.858Z,98567.91
2022-09-18T08:52:23.585Z,98575.28
2022-09-18T08:54:56.530Z,98571.69
2022-09-18T08:57:35.686Z,98566.53
2022-09-18T09:00:23.251Z,98574.28
2022-09-18T09:03:04.387Z,98572.94
2022-09-18T09:05:43.530Z,98580.28
2022-09-18T09:08:32.592Z,98580.97
2022-09-18T09:11:33.548Z,98580.16
2022-09-18T09:14:13.500Z,98579.91
2022-09-18T09:16:48.084Z,98583.72
2022-09-18T09:19:34.448Z,98583.34
2022-09-18T09:22:42.485Z,98586.38
2022-09-18T09:25:14.349Z,98589.31
2022-09-18T09:27:49.689Z,98583.00
2022-09-18T09:30:20.926Z,98579.78
2022-09-18T09:33:03.313Z,98585.41
2022-09-18T09:35:46.668Z,98582.25
2022-09-18T09:38:41.802Z,98585.25
2022-09-18T09:41:42.993Z,98588.56
2022-09-18T09:44:19.328Z,98589.00
2022-09-18T09:47:22.405Z,98599.66
2022-09-18T09:50:22.494Z,98600.38
2022-09-18T09:52:50.733Z,98601.13
2022-09-18T09:55:25.167Z,98596.19
2022-09-18T09:58:17.051Z,98613.16
2022-09-18T10:01:06.010Z,98635.09
2022-09-18T10:04:08.055Z,98640.31
2022-09-18T10:07:02.091Z,98649.84
2022-09-18T10:09:48.726Z,98646.34
2022-09-18T10:12:29.986Z,98651.00
2022-09-18T10:15:14.166Z,98661.88
2022-09-18T10:17:43.283Z,98656.19
2022-09-18T10:20:26.345Z,98649.47
2022-09-18T10:22:59.716Z,98659.16
2022-09-18T10:25:55.122Z,98650.00
2022-09-18T10:28:25.874Z,98662.28
2022-09-18T10:31:12.668Z,98660.94
2022-09-18T10:33:47.981Z,98672.66
2022-09-18T10:36:39.371Z,98672.34
2022-09-18T10:39:48.034Z,98676.94
2022-09-18T10:42:19.862Z,98678.22
2022-09-18T10:45:03.194Z,98677.47
2022-09-18T10:47:37.378Z,98676.06
2022-09-18T10:50:20.809Z,98679.72
2022-09-18T10:52:50.194Z,98697.88
2022-09-18T10:55:29.071Z,98684.66
2022-09-18T10:57:58.796Z,98702.78
2022-09-18T11:00:28.190Z,98702.19
2022-09-18T11:03:01.871Z,98690.03
2022-09-18T11:05:38.483Z,98706.25
2022-09-18T11:08:16.453Z,98714.44
2022-09-18T11:10:49.310Z,98704.47
2022-09-18T11:13:28.890Z,98699.88
2022-09-18T11:16:03.521Z,98709.16
2022-09-18T11:18:33.227Z,98705.84
2022-09-18T11:21:28.156Z,98711.50
2022-09-18T11:24:07.471Z,98710.72
2022-09-18T11:26:36.492Z,98709.56
2022-09-18T11:29:18.300Z,98710.84
2022-09-18T11:32:01.409Z,98718.34
2022-09-18T11:34:53.283Z,98724.22
2022-09-18T11:37:36.558Z,98728.50
2022-09-18T11:40:15.728Z,98721.69
2022-09-18T11:42:51.069Z,98736.28
2022-09-18T11:45:36.958Z,98726.53
2022-09-18T11:48:17.095Z,98701.75
2022-09-18T11:50:45.669Z,98739.78
2022-09-18T11:53:28.195Z,98724.66
2022-09-18T11:56:19.496Z,98731.72
2022-09-18T11:59:25.334Z,98730.63
2022-09-18T12:02:45.567Z,98738.88
2022-09-18T12:05:44.814Z,98721.66
2022-09-18T12:08:47.715Z,98727.78
2022-09-18T12:11:55.889Z,98731.53
2022-09-18T12:14:33.559Z,98732.56
2022-09-18T12:17:20.637Z,98729.16
2022-09-18T12:19:53.820Z,98724.72
2022-09-18T12:22:26.709Z,98729.16
2022-09-18T12:24:55.764Z,98724.91
2022-09-18T12:27:41.098Z,98727.31
2022-09-18T12:30:19.329Z,98725.41
2022-09-18T12:32:52.093Z,98732.59
2022-09-18T12:35:46.979Z,98740.41
2022-09-18T12:38:33.254Z,98737.44
2022-09-18T12:41:16.049Z,98733.44
2022-09-18T12:44:00.248Z,98742.44
2022-09-18T12:47:03.851Z,98732.44
2022-09-18T12:50:03.335Z,98746.66
2022-09-18T12:53:09.073Z,98749.75
2022-09-18T12:56:01.334Z,98749.69
2022-09-18T12:58:47.111Z,98749.13
2022-09-18T13:01:38.385Z,98752.19
2022-09-18T13:04:20.869Z,98755.78
2022-09-18T13:06:58.653Z,98745.97
2022-09-18T13:09:34.903Z,98755.13
2022-09-18T13:12:15.065Z,98755.47
2022-09-18T13:14:57.266Z,98762.09
2022-09-18T13:17:32.079Z,98771.97
2022-09-18T13:20:07.236Z,98762.31
2022-09-18T13:22:37.935Z,98766.72
2022-09-18T13:25:20.413Z,98766.94
2022-09-18T13:27:47.778Z,98764.25
2022-09-18T13:30:22.512Z,98765.72
2022-09-18T13:32:50.690Z,98764.34
2022-09-18T13:35:23.842Z,98755.00
2022-09-18T13:38:16.211Z,98764.69
2022-09-18T13:40:48.388Z,98766.03
2022-09-18T13:43:28.572Z,98770.38
2022-09-18T13:46:07.491Z,98763.06
2022-09-18T13:48:57.055Z,98766.94
2022-09-18T13:51:32.456Z,98772.78
2022-09-18T13:54:11.598Z,98772.13
2022-09-18T13:57:15.388Z,98767.88
2022-09-18T14:00:09.951Z,98766.09
2022-09-18T14:02:39.765Z,98767.50
2022-09-18T14:05:38.316Z,98754.44
2022-09-18T14:08:19.327Z,98752.44
2022-09-18T14:11:11.799Z,98759.91
2022-09-18T14:14:11.475Z,98757.25
2022-09-18T14:16:43.815Z,98745.78
2022-09-18T14:19:32.656Z,98748.19
2022-09-18T14:22:01.797Z,98741.00
2022-09-18T14:24:50.584Z,98751.38
2022-09-18T14:27:30.245Z,98735.53
2022-09-18T14:30:00.054Z,98744.06
2022-09-18T14:32:28.009Z,98732.28
2022-09-18T14:35:18.941Z,98725.16
2022-09-18T14:37:47.085Z,98738.63
2022-09-18T14:40:27.655Z,98736.41
2022-09-18T14:42:58.933Z,98738.91
2022-09-18T14:45:31.794Z,98742.31
2022-09-18T14:48:20.882Z,98727.25
2022-09-18T14:50:59.777Z,98733.22
2022-09-18T14:53:30.317Z,98731.28
2022-09-18T14:56:11.933Z,98732.22
2022-09-18T14:58:43.408Z,98729.09
2022-09-18T15:01:29.675Z,98719.63
2022-09-18T15:04:01.581Z,98735.91
2022-09-18T15:06:45.903Z,98721.56
2022-09-18T15:09:33.591Z,98732.53
2022-09-18T15:12:04.410Z,98733.06
2022-09-18T15:14:45.415Z,98716.44
2022-09-18T15:17:22.862Z,98722.63
2022-09-18T15:20:14.042Z,98725.66
2022-09-18T15:22:41.492Z,98727.13
2022-09-18T15:25:16.538Z,98722.38
2022-09-18T15:27:45.171Z,98726.88
2022-09-18T15:30:29.856Z,98730.03
2022-09-18T15:33:04.511Z,98729.41
2022-09-18T15:35:47.692Z,98729.06
2022-09-18T15:38:20.225Z,98726.56
2022-09-18T15:40:47.867Z,98718.31
2022-09-18T15:43:30.162Z,98725.84
2022-09-18T15:46:06.157Z,98724.50
2022-09-18T15:48:45.903Z,98728.91
2022-09-18T15:51:18.897Z,98723.69
2022-09-18T15:54:23.637Z,98716.69
2022-09-18T15:57:01.084Z,98714.06
2022-09-18T15:59:40.834Z,98718.69
2022-09-18T16:02:27.811Z,98719.22
2022-09-18T16:05:07.445Z,98716.81
2022-09-18T16:07:34.706Z,98724.88
2022-09-18T16:10:26.864Z,98723.63
2022-09-18T16:12:55.849Z,98728.25
2022-09-18T16:15:24.454Z,98731.28
2022-09-18T16:17:58.385Z,98725.31
2022-09-18T16:20:33.864Z,98730.91
2022-09-18T16:23:06.106Z,98736.66
2022-09-18T16:25:38.156Z,98725.19
2022-09-18T16:28:19.892Z,98728.25
2022-09-18T16:30:47.718Z,98730.19
2022-09-18T16:33:22.859Z,98735.53
2022-09-18T16:36:22.614Z,98739.00
2022-09-18T16:39:02.138Z,98740.94
2022-09-18T16:41:30.869Z,98745.91
2022-09-18T16:44:04.487Z,98739.66
2022-09-18T16:46:37.903Z,98742.63
2022-09-18T16:49:13.884Z,98734.00
2022-09-18T16:51:41.097Z,98741.72
2022-09-18T16:54:14.147Z,98740.41
2022-09-18T16:56:51.924Z,98747.16
2022-09-18T16:59:30.240Z,98740.44
2022-09-18T17:02:04.755Z,98736.44
2022-09-18T17:04:34.509Z,98735.59
2022-09-18T17:07:03.216Z,98730.97
2022-09-18T17:09:33.991Z,98731.00
2022-09-18T17:12:03.662Z,98737.16
2022-09-18T17:14:31.055Z,98741.22
2022-09-18T17:16:59.183Z,98742.63
2022-09-18T17:19:29.321Z,98738.59
2022-09-18T17:21:57.246Z,98735.91
2022-09-18T17:24:28.243Z,98733.94
2022-09-18T17:26:55.843Z,98735.66
2022-09-18T17:29:23.207Z,98744.28
2022-09-18T17:31:52.815Z,98748.94
2022-09-18T17:34:27.569Z,98753.56
2022-09-18T17:36:55.090Z,98758.34
2022-09-18T17:39:23.436Z,98758.59
2022-09-18T17:41:51.982Z,98754.34
2022-09-18T17:44:20.885Z,98749.38
2022-09-18T17:46:51.880Z,98740.41
2022-09-18T17:49:20.163Z,98750.97
2022-09-18T17:51:49.381Z,98764.06
2022-09-18T17:54:19.527Z,98759.69
2022-09-18T17:56:48.740Z,98758.78
2022-09-18T17:59:18.766Z,98771.78
2022-09-18T18:01:47.389Z,98760.47
2022-09-18T18:04:15.342Z,98762.50
2022-09-18T18:06:43.627Z,98759.06
2022-09-18T18:09:10.873Z,98759.94
2022-09-18T18:11:38.430Z,98755.97
2022-09-18T18:14:06.044Z,98764.91
2022-09-18T18:16:34.727Z,98750.31
2022-09-18T18:19:05.772Z,98750.53
2022-09-18T18:21:34.195Z,98755.19
2022-09-18T18:24:07.294Z,98757.41
2022-09-18T18:26:38.105Z,98759.19
2022-09-18T18:29:11.643Z,98758.25
2022-09-18T18:31:40.958Z,98757.34
2022-09-18T18:34:11.304Z,98761.88
2022-09-18T18:36:40.507Z,98755.19
2022-09-18T18:39:12.628Z,98755.41
2022-09-18T18:41:41.466Z,98749.47
2022-09-18T18:44:08.709Z,98751.94
2022-09-18T18:46:37.253Z,98758.94
2022-09-18T18:49:09.965Z,98760.97
2022-09-18T18:51:48.035Z,98759.47
2022-09-18T18:54:21.217Z,98758.47
2022-09-18T18:56:49.400Z,98754.03
2022-09-18T18:59:18.603Z,98754.00
2022-09-18T19:01:56.896Z,98760.84
2022-09-18T19:04:24.528Z,98755.28
2022-09-18T19:06:52.825Z,98746.31
2022-09-18T19:09:25.102Z,98748.72
2022-09-18T19:11:57.969Z,98743.28
2022-09-18T19:14:32.360Z,98747.25
2022-09-18T19:17:00.618Z,98744.16
2022-09-18T19:19:29.603Z,98743.25
2022-09-18T19:22:00.239Z,98742.47
2022-09-18T19:24:28.260Z,98739.78
2022-09-18T19:26:55.808Z,98750.38
2022-09-18T19:29:23.893Z,98746.13
2022-09-18T19:31:51.292Z,98741.16
2022-09-18T19:34:20.833Z,98736.56
2022-09-18T19:36:49.441Z,98741.31
2022-09-18T19:39:19.623Z,98741.47
2022-09-18T19:41:56.471Z,98729.41
2022-09-18T19:44:32.002Z,98728.06
2022-09-18T19:47:03.682Z,98727.31
2022-09-18T19:49:37.509Z,98748.03
2022-09-18T19:52:18.372Z,98748.66
2022-09-18T19:54:51.420Z,98748.03
2022-09-18T19:57:20.605Z,98746.47
2022-09-18T19:59:55.533Z,98740.25
2022-09-18T20:02:24.375Z,98744.03
2022-09-18T20:04:52.428Z,98745.81
2022-09-18T20:07:20.927Z,98746.97
2022-09-18T20:09:48.988Z,98743.72
2022-09-18T20:12:18.378Z,98748.28
2022-09-18T20:14:58.739Z,98746.03
2022-09-18T20:17:32.008Z,98742.53
2022-09-18T20:19:59.842Z,98743.88
2022-09-18T20:22:30.135Z,98739.19
2022-09-18T20:25:00.261Z,98738.75
2022-09-18T20:27:27.750Z,98746.50
2022-09-18T20:29:56.750Z,98748.03
2022-09-18T20:32:25.968Z,98748.66
2022-09-18T20:35:13.723Z,98743.69
2022-09-18T20:37:47.444Z,98746.13
2022-09-18T20:40:14.534Z,98745.56
2022-09-18T20:43:07.018Z,98746.22
2022-09-18T20:45:35.135Z,98741.94
2022-09-18T20:48:09.990Z,98748.53
2022-09-18T20:51:13.727Z,98744.09
2022-09-18T20:53:45.481Z,98752.16
2022-09-18T20:56:15.846Z,98743.09
2022-09-18T20:58:43.896Z,98750.16
2022-09-18T21:01:20.640Z,98754.16
2022-09-18T21:04:01.073Z,98756.56
2022-09-18T21:06:36.371Z,98753.31
2022-09-18T21:09:10.282Z,98752.88
2022-09-18T21:11:43.554Z,98756.91
2022-09-18T21:15:10.291Z,98757.66
2022-09-18T21:17:54.371Z,98762.81
2022-09-18T21:20:44.042Z,98763.53
2022-09-18T21:23:31.000Z,98755.44
2022-09-18T21:25:58.144Z,98761.38
2022-09-18T21:28:25.686Z,98750.63
2022-09-18T21:31:08.480Z,98750.91
2022-09-18T21:33:55.466Z,98744.00
2022-09-18T21:36:39.018Z,98745.94
2022-09-18T21:39:10.194Z,98738.38
2022-09-18T21:41:46.609Z,98743.78
2022-09-18T21:44:27.372Z,98743.34
2022-09-18T21:46:59.145Z,98740.66
2022-09-18T21:50:03.516Z,98736.59
2022-09-18T21:52:44.524Z,98743.53
2022-09-18T21:55:22.913Z,98742.63
2022-09-18T21:57:56.039Z,98739.28
2022-09-18T22:00:28.214Z,98743.94
2022-09-18T22:02:55.263Z,98746.66
2022-09-18T22:05:29.674Z,98744.22
2022-09-18T22:08:00.141Z,98738.28
2022-09-18T22:10:45.896Z,98734.91
2022-09-18T22:13:34.865Z,98745.56
2022-09-18T22:16:02.082Z,98744.78
2022-09-18T22:18:35.929Z,98745.69
2022-09-18T22:21:04.583Z,98731.75
2022-09-18T22:23:32.722Z,98742.94
2022-09-18T22:26:07.382Z,98742.16
2022-09-18T22:28:42.680Z,98733.97
2022-09-18T22:31:23.177Z,98742.56
2022-09-18T22:34:15.249Z,98742.44
2022-09-18T22:36:47.856Z,98737.97
2022-09-18T22:39:16.584Z,98736.22
2022-09-18T22:41:45.110Z,98738.50
2022-09-18T22:44:21.644Z,98732.97
2022-09-18T22:46:56.805Z,98730.75
2022-09-18T22:49:39.066Z,98732.03
2022-09-18T22:52:23.226Z,98722.16
2022-09-18T22:54:54.341Z,98731.25
2022-09-18T22:57:39.707Z,98732.25
2022-09-18T23:00:55.088Z,98742.78
2022-09-18T23:03:30.336Z,98738.03
2022-09-18T23:06:06.691Z,98745.28
2022-09-18T23:08:35.792Z,98741.56
2022-09-18T23:11:16.936Z,98739.66
2022-09-18T23:13:51.832Z,98736.31
2022-09-18T23:16:20.378Z,98737.97
2022-09-18T23:18:56.813Z,98737.28
2022-09-18T23:21:29.189Z,98734.25
2022-09-18T23:24:01.486Z,98732.47
2022-09-18T23:26:32.767Z,98724.41
2022-09-18T23:29:01.631Z,98721.72
2022-09-18T23:31:32.161Z,98716.59
2022-09-18T23:34:03.921Z,98717.94
2022-09-18T23:36:36.058Z,98719.72
2022-09-18T23:39:15.165Z,98719.44
2022-09-18T23:41:42.827Z,98720.28
2022-09-18T23:44:18.796Z,98709.63
2022-09-18T23:46:49.660Z,98713.88
2022-09-18T23:49:27.170Z,98718.72
2022-09-18T23:51:55.491Z,98713.59
2022-09-18T23:54:35.824Z,98717.22
2022-09-18T23:57:04.077Z,98713.88
2022-09-18T23:59:33.130Z,98711.06
